createdAt,value
2024-02-28T00:00:28.323Z,98790.78
2024-02-28T00:05:30.374Z,98787.41
2024-02-28T00:10:33.570Z,98789.59
2024-02-28T00:15:35.479Z,98794.38
2024-02-28T00:20:37.340Z,98790.59
2024-02-28T00:25:39.303Z,98788.22
2024-02-28T00:30:42.434Z,98788.53
2024-02-28T00:35:44.318Z,98783.41
2024-02-28T00:40:46.325Z,98777.34
2024-02-28T00:45:48.260Z,98792.41
2024-02-28T00:50:50.191Z,98796.72
2024-02-28T00:55:53.102Z,98802.84
2024-02-28T01:00:55.159Z,98805.63
2024-02-28T01:05:57.183Z,98792.97
2024-02-28T01:11:00.840Z,98812.84
2024-02-28T01:16:03.150Z,98793.56
2024-02-28T01:21:05.079Z,98801.81
2024-02-28T01:26:07.382Z,98805.16
2024-02-28T01:31:09.368Z,98807.28
2024-02-28T01:36:13.178Z,98803.72
2024-02-28T01:41:15.086Z,98806.50
2024-02-28T01:46:28.064Z,98797.91
2024-02-28T01:51:30.227Z,98798.72
2024-02-28T01:56:32.739Z,98794.41
2024-02-28T02:01:34.696Z,98801.09
2024-02-28T02:06:40.001Z,98797.56
2024-02-28T02:11:42.070Z,98796.59
2024-02-28T02:16:46.179Z,98796.91
2024-02-28T02:21:55.353Z,98801.22
2024-02-28T02:26:59.798Z,98809.09
2024-02-28T02:32:02.524Z,98810.09
2024-02-28T02:37:06.175Z,98800.34
2024-02-28T02:42:08.141Z,98803.59
2024-02-28T02:47:10.316Z,98808.22
2024-02-28T02:52:12.358Z,98804.28
2024-02-28T02:57:14.285Z,98805.63
2024-02-28T03:02:16.320Z,98802.50
2024-02-28T03:07:18.253Z,98810.78
2024-02-28T03:12:20.199Z,98802.84
2024-02-28T03:17:25.286Z,98813.00
2024-02-28T03:22:27.948Z,98809.78
2024-02-28T03:27:29.978Z,98815.75
2024-02-28T03:32:32.444Z,98810.09
2024-02-28T03:37:34.345Z,98804.19
2024-02-28T03:42:36.252Z,98815.66
2024-02-28T03:47:38.364Z,98824.25
2024-02-28T03:52:40.374Z,98821.69
2024-02-28T03:57:42.331Z,98817.59
2024-02-28T04:02:44.315Z,98826.91
2024-02-28T04:07:46.497Z,98831.31
2024-02-28T04:12:48.670Z,98827.53
2024-02-28T04:17:50.709Z,98831.13
2024-02-28T04:22:52.656Z,98831.47
2024-02-28T04:27:54.697Z,98833.34
2024-02-28T04:32:56.708Z,98849.06
2024-02-28T04:37:58.718Z,98868.66
2024-02-28T04:43:00.806Z,98871.09
2024-02-28T04:48:02.984Z,98872.09
2024-02-28T04:53:05.086Z,98867.16
2024-02-28T04:58:07.023Z,98864.53
2024-02-28T05:03:08.990Z,98879.28
2024-02-28T05:08:10.938Z,98893.09
2024-02-28T05:13:12.944Z,98890.66
2024-02-28T05:18:14.975Z,98909.63
2024-02-28T05:23:17.001Z,98921.75
2024-02-28T05:28:18.874Z,98916.38
2024-02-28T05:33:20.851Z,98922.88
2024-02-28T05:38:25.622Z,98925.66
2024-02-28T05:43:28.592Z,98938.06
2024-02-28T05:48:30.456Z,98952.94
2024-02-28T05:53:41.972Z,98972.75
2024-02-28T05:58:48.706Z,98969.47
2024-02-28T06:03:50.721Z,98984.38
2024-02-28T06:08:52.827Z,98987.06
2024-02-28T06:13:54.825Z,98993.34
2024-02-28T06:18:56.797Z,99002.31
2024-02-28T06:23:58.777Z,99005.41
2024-02-28T06:29:03.051Z,99018.47
2024-02-28T06:34:05.222Z,99027.59
2024-02-28T06:39:07.216Z,99035.22
2024-02-28T06:44:09.098Z,99031.47
2024-02-28T06:49:11.069Z,99049.69
2024-02-28T06:54:13.232Z,99050.63
2024-02-28T06:59:15.099Z,99057.47
2024-02-28T07:04:17.021Z,99061.16
2024-02-28T07:09:18.968Z,99071.63
2024-02-28T07:14:21.783Z,99091.94
2024-02-28T07:19:23.782Z,99088.59
2024-02-28T07:24:25.649Z,99099.19
2024-02-28T07:29:27.589Z,99108.28
2024-02-28T07:34:31.799Z,99112.31
2024-02-28T07:39:33.835Z,99124.56
2024-02-28T07:44:35.770Z,99126.38
2024-02-28T07:49:38.480Z,99124.06
2024-02-28T07:54:44.390Z,99145.97
2024-02-28T07:59:46.330Z,99138.09
2024-02-28T08:04:48.257Z,99147.72
2024-02-28T08:09:50.283Z,99153.47
2024-02-28T08:14:52.203Z,99161.50
2024-02-28T08:19:54.118Z,99156.00
2024-02-28T08:24:56.050Z,99170.47
2024-02-28T08:29:57.941Z,99164.81
2024-02-28T08:35:01.686Z,99168.06
2024-02-28T08:40:04.170Z,99173.00
2024-02-28T08:45:07.133Z,99179.28
2024-02-28T08:50:09.320Z,99192.03
2024-02-28T08:55:11.508Z,99190.66
2024-02-28T09:00:14.254Z,99192.69
2024-02-28T09:05:16.248Z,99192.22
2024-02-28T09:10:22.450Z,99195.88
2024-02-28T09:15:24.615Z,99215.41
2024-02-28T09:20:27.007Z,99212.00
2024-02-28T09:25:29.382Z,99221.34
2024-02-28T09:30:39.771Z,99218.59
2024-02-28T09:35:47.623Z,99222.47
2024-02-28T09:40:50.485Z,99228.41
2024-02-28T09:45:53.320Z,99230.38
2024-02-28T09:50:56.965Z,99238.88
2024-02-28T09:55:59.759Z,99237.25
2024-02-28T10:01:07.043Z,99241.84
2024-02-28T10:06:12.622Z,99247.09
2024-02-28T10:11:25.102Z,99238.41
2024-02-28T10:16:28.209Z,99255.03
2024-02-28T10:21:34.004Z,99253.53
2024-02-28T10:26:47.006Z,99246.16
2024-02-28T10:31:48.905Z,99253.06
2024-02-28T10:36:51.365Z,99254.34
2024-02-28T10:41:55.074Z,99250.88
2024-02-28T10:46:57.328Z,99243.88
2024-02-28T10:52:00.511Z,99248.53
2024-02-28T10:57:03.784Z,99241.75
2024-02-28T11:02:05.931Z,99246.16
2024-02-28T11:07:08.664Z,99247.56
2024-02-28T11:12:31.419Z,99242.16
2024-02-28T11:17:34.719Z,99232.13
2024-02-28T11:22:38.765Z,99235.03
2024-02-28T11:27:48.134Z,99229.47
2024-02-28T11:32:53.769Z,99227.91
2024-02-28T11:37:59.710Z,99235.47
2024-02-28T11:43:04.858Z,99219.66
2024-02-28T11:48:07.767Z,99218.50
2024-02-28T11:53:10.013Z,99225.59
2024-02-28T11:58:11.954Z,99222.34
2024-02-28T12:03:13.848Z,99220.09
2024-02-28T12:08:15.866Z,99222.38
2024-02-28T12:13:21.690Z,99214.09
2024-02-28T12:18:23.629Z,99210.50
2024-02-28T12:23:25.561Z,99210.69
2024-02-28T12:28:27.530Z,99208.53
2024-02-28T12:33:29.412Z,99207.97
2024-02-28T12:38:32.193Z,99208.47
2024-02-28T12:43:34.258Z,99205.22
2024-02-28T12:48:40.422Z,99198.25
2024-02-28T12:53:42.370Z,99204.38
2024-02-28T12:58:44.846Z,99196.84
2024-02-28T13:03:46.750Z,99202.03
2024-02-28T13:08:52.880Z,99202.38
2024-02-28T13:13:55.204Z,99204.19
2024-02-28T13:18:57.685Z,99199.16
2024-02-28T13:24:00.417Z,99210.09
2024-02-28T13:29:02.356Z,99209.78
2024-02-28T13:34:04.571Z,99207.34
2024-02-28T13:39:07.080Z,99211.41
2024-02-28T13:44:10.435Z,99208.84
2024-02-28T13:49:14.380Z,99214.09
2024-02-28T13:54:16.737Z,99218.41
2024-02-28T13:59:18.664Z,99214.91
2024-02-28T14:04:20.965Z,99216.31
2024-02-28T14:09:22.923Z,99228.97
2024-02-28T14:14:25.098Z,99228.28
2024-02-28T14:19:26.988Z,99232.84
2024-02-28T14:24:32.564Z,99230.03
2024-02-28T14:29:34.472Z,99246.91
2024-02-28T14:34:36.847Z,99247.09
2024-02-28T14:39:38.921Z,99239.59
2024-02-28T14:44:41.116Z,99249.22
2024-02-28T14:49:43.166Z,99267.88
2024-02-28T14:54:46.941Z,99273.28
2024-02-28T14:59:48.876Z,99272.25
2024-02-28T15:04:50.989Z,99291.50
2024-02-28T15:09:52.986Z,99285.34
2024-02-28T15:14:56.434Z,99290.91
2024-02-28T15:19:58.835Z,99309.69
2024-02-28T15:25:00.962Z,99298.13
2024-02-28T15:30:05.738Z,99319.53
2024-02-28T15:35:09.582Z,99328.50
2024-02-28T15:40:12.512Z,99320.78
2024-02-28T15:45:16.748Z,99321.84
2024-02-28T15:50:19.791Z,99324.25
2024-02-28T15:55:22.363Z,99328.31
2024-02-28T16:00:24.344Z,99332.44
2024-02-28T16:05:29.053Z,99343.72
2024-02-28T16:10:33.040Z,99328.59
2024-02-28T16:15:35.646Z,99338.41
2024-02-28T16:20:37.688Z,99351.03
2024-02-28T16:25:41.546Z,99355.88
2024-02-28T16:30:47.854Z,99355.91
2024-02-28T16:35:51.017Z,99369.59
2024-02-28T16:40:56.270Z,99372.00
2024-02-28T16:45:59.601Z,99378.50
2024-02-28T16:51:02.449Z,99389.84
2024-02-28T16:56:04.693Z,99391.13
2024-02-28T17:01:09.242Z,99385.34
2024-02-28T17:06:11.464Z,99391.94
2024-02-28T17:11:14.128Z,99388.38
2024-02-28T17:16:18.027Z,99394.75
2024-02-28T17:21:20.565Z,99401.94
2024-02-28T17:26:22.459Z,99399.69
2024-02-28T17:31:24.431Z,99412.97
2024-02-28T17:36:26.501Z,99412.41
2024-02-28T17:41:29.433Z,99420.19
2024-02-28T17:46:33.999Z,99421.53
2024-02-28T17:51:37.286Z,99422.84
2024-02-28T17:56:46.963Z,99426.13
2024-02-28T18:01:49.232Z,99428.25
2024-02-28T18:06:51.590Z,99431.47
2024-02-28T18:11:53.998Z,99438.97
2024-02-28T18:16:56.370Z,99438.16
2024-02-28T18:21:58.618Z,99432.97
2024-02-28T18:27:00.497Z,99433.25
2024-02-28T18:32:03.270Z,99431.34
2024-02-28T18:37:05.532Z,99438.63
2024-02-28T18:42:07.651Z,99437.22
2024-02-28T18:47:09.514Z,99437.84
2024-02-28T18:52:11.477Z,99434.56
2024-02-28T18:57:13.411Z,99432.38
2024-02-28T19:02:15.370Z,99442.97
2024-02-28T19:07:17.971Z,99446.97
2024-02-28T19:12:19.909Z,99443.59
2024-02-28T19:17:22.842Z,99449.22
2024-02-28T19:22:24.910Z,99443.56
2024-02-28T19:27:26.905Z,99447.19
2024-02-28T19:32:28.963Z,99447.59
2024-02-28T19:37:30.881Z,99446.88
2024-02-28T19:42:33.547Z,99453.75
2024-02-28T19:47:36.328Z,99460.31
2024-02-28T19:52:39.036Z,99458.78
2024-02-28T19:57:40.998Z,99472.56
2024-02-28T20:02:42.936Z,99467.34
2024-02-28T20:07:44.869Z,99468.47
2024-02-28T20:12:46.949Z,99468.41
2024-02-28T20:17:49.040Z,99482.19
2024-02-28T20:22:51.034Z,99479.66
2024-02-28T20:27:52.994Z,99488.16
2024-02-28T20:32:55.081Z,99488.59
2024-02-28T20:37:57.737Z,99488.59
2024-02-28T20:43:01.754Z,99485.75
2024-02-28T20:48:04.390Z,99500.78
2024-02-28T20:53:07.230Z,99485.56
2024-02-28T20:58:10.464Z,99488.63
2024-02-28T21:03:13.985Z,99485.44
2024-02-28T21:08:16.405Z,99484.22
2024-02-28T21:13:18.423Z,99485.09
2024-02-28T21:18:21.237Z,99479.50
2024-02-28T21:23:23.161Z,99489.34
2024-02-28T21:28:25.148Z,99496.97
2024-02-28T21:33:29.076Z,99498.28
2024-02-28T21:38:31.115Z,99501.16
2024-02-28T21:43:33.576Z,99495.63
2024-02-28T21:48:38.535Z,99488.69
2024-02-28T21:53:40.489Z,99487.94
2024-02-28T21:58:42.519Z,99490.66
2024-02-28T22:03:45.543Z,99496.41
2024-02-28T22:08:47.510Z,99495.63
2024-02-28T22:13:49.481Z,99493.06
2024-02-28T22:18:52.078Z,99493.13
2024-02-28T22:23:54.049Z,99493.13
2024-02-28T22:28:56.148Z,99494.78
2024-02-28T22:33:58.129Z,99490.91
2024-02-28T22:39:00.094Z,99481.19
2024-02-28T22:44:02.308Z,99483.91
2024-02-28T22:49:05.397Z,99489.34
2024-02-28T22:54:10.394Z,99488.47
2024-02-28T22:59:13.182Z,99497.31
2024-02-28T23:04:17.108Z,99489.94
2024-02-28T23:09:19.132Z,99492.91
2024-02-28T23:14:21.263Z,99498.34
2024-02-28T23:19:23.215Z,99495.06
2024-02-28T23:24:25.127Z,99495.06
2024-02-28T23:29:27.154Z,99492.19
2024-02-28T23:34:29.899Z,99499.97
2024-02-28T23:39:31.806Z,99486.66
2024-02-28T23:44:33.727Z,99484.59
2024-02-28T23:49:35.572Z,99482.97
2024-02-28T23:54:38.034Z,99480.69
2024-02-28T23:59:42.477Z,99481.66
